sensor_id;sensor_type;location;lat;lon;timestamp;P1;durP1;ratioP1;P2;durP2;ratioP2
32746;SDS011;19118;50.860;13.662;2023-09-19T00:01:51;4.50;;;1.85;;
32746;SDS011;19118;50.860;13.662;2023-09-19T00:06:52;5.93;;;1.23;;
32746;SDS011;19118;50.860;13.662;2023-09-19T00:11:54;6.07;;;0.95;;
32746;SDS011;19118;50.860;13.662;2023-09-19T00:16:54;15.00;;;1.77;;
32746;SDS011;19118;50.860;13.662;2023-09-19T00:21:54;3.65;;;1.75;;
32746;SDS011;19118;50.860;13.662;2023-09-19T00:26:55;6.67;;;1.70;;
32746;SDS011;19118;50.860;13.662;2023-09-19T00:31:55;2.20;;;1.30;;
32746;SDS011;19118;50.860;13.662;2023-09-19T00:36:59;3.17;;;1.38;;
32746;SDS011;19118;50.860;13.662;2023-09-19T00:41:59;3.33;;;1.25;;
32746;SDS011;19118;50.860;13.662;2023-09-19T00:47:05;6.88;;;1.42;;
32746;SDS011;19118;50.860;13.662;2023-09-19T00:52:05;6.07;;;1.40;;
32746;SDS011;19118;50.860;13.662;2023-09-19T00:57:06;5.90;;;1.30;;
32746;SDS011;19118;50.860;13.662;2023-09-19T01:02:08;3.20;;;1.27;;
32746;SDS011;19118;50.860;13.662;2023-09-19T01:07:08;5.57;;;1.65;;
32746;SDS011;19118;50.860;13.662;2023-09-19T01:12:08;4.32;;;1.63;;
32746;SDS011;19118;50.860;13.662;2023-09-19T01:17:14;9.02;;;1.58;;
32746;SDS011;19118;50.860;13.662;2023-09-19T01:22:28;6.07;;;2.15;;
32746;SDS011;19118;50.860;13.662;2023-09-19T01:33:07;7.82;;;1.70;;
32746;SDS011;19118;50.860;13.662;2023-09-19T01:38:08;5.25;;;1.38;;
32746;SDS011;19118;50.860;13.662;2023-09-19T01:43:12;3.47;;;1.73;;
32746;SDS011;19118;50.860;13.662;2023-09-19T01:53:53;2.83;;;1.20;;
32746;SDS011;19118;50.860;13.662;2023-09-19T01:59:07;2.83;;;1.10;;
32746;SDS011;19118;50.860;13.662;2023-09-19T02:04:13;2.92;;;1.20;;
32746;SDS011;19118;50.860;13.662;2023-09-19T02:09:14;4.63;;;1.30;;
32746;SDS011;19118;50.860;13.662;2023-09-19T02:14:15;3.70;;;1.13;;
32746;SDS011;19118;50.860;13.662;2023-09-19T02:19:15;4.93;;;1.23;;
32746;SDS011;19118;50.860;13.662;2023-09-19T02:24:17;3.63;;;0.98;;
32746;SDS011;19118;50.860;13.662;2023-09-19T02:29:17;4.90;;;1.35;;
32746;SDS011;19118;50.860;13.662;2023-09-19T02:34:18;1.88;;;1.10;;
32746;SDS011;19118;50.860;13.662;2023-09-19T02:39:19;5.35;;;1.00;;
32746;SDS011;19118;50.860;13.662;2023-09-19T02:44:19;9.23;;;1.30;;
32746;SDS011;19118;50.860;13.662;2023-09-19T02:49:20;3.63;;;0.80;;
32746;SDS011;19118;50.860;13.662;2023-09-19T02:54:20;2.00;;;0.85;;
32746;SDS011;19118;50.860;13.662;2023-09-19T02:59:21;3.88;;;0.95;;
32746;SDS011;19118;50.860;13.662;2023-09-19T03:04:22;3.42;;;1.13;;
32746;SDS011;19118;50.860;13.662;2023-09-19T03:09:23;3.58;;;0.80;;
32746;SDS011;19118;50.860;13.662;2023-09-19T03:14:23;1.92;;;1.10;;
32746;SDS011;19118;50.860;13.662;2023-09-19T03:19:25;4.38;;;1.48;;
32746;SDS011;19118;50.860;13.662;2023-09-19T03:24:27;4.50;;;1.13;;
32746;SDS011;19118;50.860;13.662;2023-09-19T03:29:30;4.22;;;1.65;;
32746;SDS011;19118;50.860;13.662;2023-09-19T03:34:32;2.15;;;1.10;;
32746;SDS011;19118;50.860;13.662;2023-09-19T03:39:33;3.58;;;1.38;;
32746;SDS011;19118;50.860;13.662;2023-09-19T03:44:33;12.80;;;1.58;;
32746;SDS011;19118;50.860;13.662;2023-09-19T03:49:34;4.53;;;1.08;;
32746;SDS011;19118;50.860;13.662;2023-09-19T03:54:34;8.60;;;1.20;;
32746;SDS011;19118;50.860;13.662;2023-09-19T03:59:35;7.18;;;1.50;;
32746;SDS011;19118;50.860;13.662;2023-09-19T04:04:35;7.15;;;1.50;;
32746;SDS011;19118;50.860;13.662;2023-09-19T04:09:36;5.83;;;1.40;;
32746;SDS011;19118;50.860;13.662;2023-09-19T04:14:36;5.57;;;1.90;;
32746;SDS011;19118;50.860;13.662;2023-09-19T04:19:37;6.40;;;1.63;;
32746;SDS011;19118;50.860;13.662;2023-09-19T04:24:39;10.23;;;1.70;;
32746;SDS011;19118;50.860;13.662;2023-09-19T04:29:39;4.00;;;1.38;;
32746;SDS011;19118;50.860;13.662;2023-09-19T04:34:41;1.88;;;1.33;;
32746;SDS011;19118;50.860;13.662;2023-09-19T04:39:42;10.32;;;3.33;;
32746;SDS011;19118;50.860;13.662;2023-09-19T04:44:43;4.03;;;1.30;;
32746;SDS011;19118;50.860;13.662;2023-09-19T04:49:43;2.15;;;1.15;;
32746;SDS011;19118;50.860;13.662;2023-09-19T04:54:43;6.13;;;1.37;;
32746;SDS011;19118;50.860;13.662;2023-09-19T04:59:45;1.42;;;1.08;;
32746;SDS011;19118;50.860;13.662;2023-09-19T05:04:45;3.58;;;1.40;;
32746;SDS011;19118;50.860;13.662;2023-09-19T05:09:45;6.30;;;1.20;;
32746;SDS011;19118;50.860;13.662;2023-09-19T05:14:46;4.83;;;1.40;;
32746;SDS011;19118;50.860;13.662;2023-09-19T05:19:46;3.67;;;1.02;;
32746;SDS011;19118;50.860;13.662;2023-09-19T05:24:46;4.53;;;1.70;;
32746;SDS011;19118;50.860;13.662;2023-09-19T05:29:48;2.78;;;1.60;;
32746;SDS011;19118;50.860;13.662;2023-09-19T05:34:50;3.88;;;1.60;;
32746;SDS011;19118;50.860;13.662;2023-09-19T05:39:56;3.47;;;1.70;;
32746;SDS011;19118;50.860;13.662;2023-09-19T05:44:57;4.35;;;1.58;;
32746;SDS011;19118;50.860;13.662;2023-09-19T05:49:58;10.52;;;1.60;;
32746;SDS011;19118;50.860;13.662;2023-09-19T05:54:59;2.03;;;1.30;;
32746;SDS011;19118;50.860;13.662;2023-09-19T06:00:00;4.37;;;1.33;;
32746;SDS011;19118;50.860;13.662;2023-09-19T06:05:00;3.95;;;1.23;;
32746;SDS011;19118;50.860;13.662;2023-09-19T06:10:01;6.17;;;1.70;;
32746;SDS011;19118;50.860;13.662;2023-09-19T06:15:01;2.30;;;1.00;;
32746;SDS011;19118;50.860;13.662;2023-09-19T06:20:01;2.20;;;1.10;;
32746;SDS011;19118;50.860;13.662;2023-09-19T06:25:04;8.23;;;1.45;;
32746;SDS011;19118;50.860;13.662;2023-09-19T06:30:05;6.32;;;1.15;;
32746;SDS011;19118;50.860;13.662;2023-09-19T06:35:07;2.17;;;1.02;;
32746;SDS011;19118;50.860;13.662;2023-09-19T06:40:11;1.83;;;1.40;;
32746;SDS011;19118;50.860;13.662;2023-09-19T06:45:14;6.80;;;1.70;;
32746;SDS011;19118;50.860;13.662;2023-09-19T06:50:18;2.15;;;1.08;;
32746;SDS011;19118;50.860;13.662;2023-09-19T06:55:22;4.28;;;1.15;;
32746;SDS011;19118;50.860;13.662;2023-09-19T07:00:25;5.15;;;1.42;;
32746;SDS011;19118;50.860;13.662;2023-09-19T07:05:25;7.70;;;1.13;;
32746;SDS011;19118;50.860;13.662;2023-09-19T07:10:32;1.73;;;0.90;;
32746;SDS011;19118;50.860;13.662;2023-09-19T07:15:33;1.85;;;0.82;;
32746;SDS011;19118;50.860;13.662;2023-09-19T07:20:36;5.30;;;1.10;;
32746;SDS011;19118;50.860;13.662;2023-09-19T07:25:37;10.75;;;1.63;;
32746;SDS011;19118;50.860;13.662;2023-09-19T07:30:37;4.68;;;1.25;;
32746;SDS011;19118;50.860;13.662;2023-09-19T07:35:39;3.92;;;1.30;;
32746;SDS011;19118;50.860;13.662;2023-09-19T07:40:42;5.03;;;1.40;;
32746;SDS011;19118;50.860;13.662;2023-09-19T07:45:43;1.92;;;0.95;;
32746;SDS011;19118;50.860;13.662;2023-09-19T07:50:44;2.42;;;1.20;;
32746;SDS011;19118;50.860;13.662;2023-09-19T07:55:44;8.45;;;2.53;;
32746;SDS011;19118;50.860;13.662;2023-09-19T08:00:48;3.13;;;1.20;;
32746;SDS011;19118;50.860;13.662;2023-09-19T08:05:48;3.70;;;1.13;;
32746;SDS011;19118;50.860;13.662;2023-09-19T08:10:52;3.10;;;1.02;;
32746;SDS011;19118;50.860;13.662;2023-09-19T08:15:56;3.83;;;1.05;;
32746;SDS011;19118;50.860;13.662;2023-09-19T08:20:56;3.00;;;1.03;;
32746;SDS011;19118;50.860;13.662;2023-09-19T08:25:58;4.63;;;0.90;;
32746;SDS011;19118;50.860;13.662;2023-09-19T08:31:03;3.08;;;1.42;;
32746;SDS011;19118;50.860;13.662;2023-09-19T08:36:07;10.50;;;1.38;;
32746;SDS011;19118;50.860;13.662;2023-09-19T08:41:09;3.05;;;1.05;;
32746;SDS011;19118;50.860;13.662;2023-09-19T08:46:10;2.97;;;1.00;;
32746;SDS011;19118;50.860;13.662;2023-09-19T08:51:18;3.45;;;1.55;;
32746;SDS011;19118;50.860;13.662;2023-09-19T08:56:40;7.70;;;0.95;;
32746;SDS011;19118;50.860;13.662;2023-09-19T09:01:43;1.35;;;0.82;;
32746;SDS011;19118;50.860;13.662;2023-09-19T09:06:44;1.75;;;1.02;;
32746;SDS011;19118;50.860;13.662;2023-09-19T09:11:48;4.60;;;1.20;;
32746;SDS011;19118;50.860;13.662;2023-09-19T09:16:53;3.00;;;1.38;;
32746;SDS011;19118;50.860;13.662;2023-09-19T09:22:09;11.88;;;1.42;;
32746;SDS011;19118;50.860;13.662;2023-09-19T09:27:10;3.28;;;1.48;;
32746;SDS011;19118;50.860;13.662;2023-09-19T09:32:31;7.65;;;1.33;;
32746;SDS011;19118;50.860;13.662;2023-09-19T09:37:35;3.38;;;1.38;;
32746;SDS011;19118;50.860;13.662;2023-09-19T09:42:38;6.28;;;1.17;;
32746;SDS011;19118;50.860;13.662;2023-09-19T09:47:50;2.13;;;1.20;;
32746;SDS011;19118;50.860;13.662;2023-09-19T09:52:57;3.80;;;0.90;;
32746;SDS011;19118;50.860;13.662;2023-09-19T09:58:16;4.30;;;1.25;;
32746;SDS011;19118;50.860;13.662;2023-09-19T10:03:21;1.80;;;1.13;;
32746;SDS011;19118;50.860;13.662;2023-09-19T10:08:22;4.00;;;1.05;;
32746;SDS011;19118;50.860;13.662;2023-09-19T10:13:23;2.57;;;1.30;;
32746;SDS011;19118;50.860;13.662;2023-09-19T10:18:27;4.40;;;1.48;;
32746;SDS011;19118;50.860;13.662;2023-09-19T10:23:30;4.00;;;1.20;;
32746;SDS011;19118;50.860;13.662;2023-09-19T10:28:34;1.52;;;1.05;;
32746;SDS011;19118;50.860;13.662;2023-09-19T10:33:35;2.85;;;1.17;;
32746;SDS011;19118;50.860;13.662;2023-09-19T10:38:42;1.55;;;1.08;;
32746;SDS011;19118;50.860;13.662;2023-09-19T10:43:46;3.28;;;1.10;;
32746;SDS011;19118;50.860;13.662;2023-09-19T10:48:48;6.22;;;1.25;;
32746;SDS011;19118;50.860;13.662;2023-09-19T10:53:56;4.20;;;0.80;;
32746;SDS011;19118;50.860;13.662;2023-09-19T10:59:07;2.38;;;1.10;;
32746;SDS011;19118;50.860;13.662;2023-09-19T11:15:01;2.97;;;1.02;;
32746;SDS011;19118;50.860;13.662;2023-09-19T11:30:30;1.80;;;1.20;;
32746;SDS011;19118;50.860;13.662;2023-09-19T11:46:20;3.13;;;1.08;;
32746;SDS011;19118;50.860;13.662;2023-09-19T11:51:24;3.38;;;1.00;;
32746;SDS011;19118;50.860;13.662;2023-09-19T11:56:27;1.70;;;0.98;;
32746;SDS011;19118;50.860;13.662;2023-09-19T12:01:32;3.33;;;1.10;;
32746;SDS011;19118;50.860;13.662;2023-09-19T12:06:33;2.03;;;1.10;;
32746;SDS011;19118;50.860;13.662;2023-09-19T12:11:40;3.42;;;1.33;;
32746;SDS011;19118;50.860;13.662;2023-09-19T12:16:50;1.98;;;1.25;;
32746;SDS011;19118;50.860;13.662;2023-09-19T12:22:02;7.13;;;1.23;;
32746;SDS011;19118;50.860;13.662;2023-09-19T12:27:04;4.00;;;1.42;;
32746;SDS011;19118;50.860;13.662;2023-09-19T12:32:06;3.90;;;1.83;;
32746;SDS011;19118;50.860;13.662;2023-09-19T12:37:13;3.90;;;1.52;;
32746;SDS011;19118;50.860;13.662;2023-09-19T12:42:44;3.45;;;1.85;;
32746;SDS011;19118;50.860;13.662;2023-09-19T12:53:27;2.80;;;1.60;;
32746;SDS011;19118;50.860;13.662;2023-09-19T12:58:30;1.98;;;1.40;;
32746;SDS011;19118;50.860;13.662;2023-09-19T13:03:32;5.60;;;1.52;;
32746;SDS011;19118;50.860;13.662;2023-09-19T13:08:35;2.03;;;1.17;;
32746;SDS011;19118;50.860;13.662;2023-09-19T13:13:43;2.25;;;1.38;;
32746;SDS011;19118;50.860;13.662;2023-09-19T13:18:46;4.32;;;1.33;;
32746;SDS011;19118;50.860;13.662;2023-09-19T13:29:18;3.17;;;1.38;;
32746;SDS011;19118;50.860;13.662;2023-09-19T13:34:19;3.13;;;1.50;;
32746;SDS011;19118;50.860;13.662;2023-09-19T13:39:20;4.50;;;2.55;;
32746;SDS011;19118;50.860;13.662;2023-09-19T13:44:23;2.30;;;1.48;;
32746;SDS011;19118;50.860;13.662;2023-09-19T13:49:24;3.17;;;1.57;;
32746;SDS011;19118;50.860;13.662;2023-09-19T13:54:24;8.48;;;3.10;;
32746;SDS011;19118;50.860;13.662;2023-09-19T13:59:24;1.92;;;1.35;;
32746;SDS011;19118;50.860;13.662;2023-09-19T14:04:25;2.15;;;1.35;;
32746;SDS011;19118;50.860;13.662;2023-09-19T14:09:26;2.77;;;1.50;;
32746;SDS011;19118;50.860;13.662;2023-09-19T14:14:27;4.30;;;2.10;;
32746;SDS011;19118;50.860;13.662;2023-09-19T14:19:27;8.27;;;1.90;;
32746;SDS011;19118;50.860;13.662;2023-09-19T14:24:27;5.45;;;1.70;;
32746;SDS011;19118;50.860;13.662;2023-09-19T14:29:29;3.00;;;1.73;;
32746;SDS011;19118;50.860;13.662;2023-09-19T14:34:30;3.35;;;1.48;;
32746;SDS011;19118;50.860;13.662;2023-09-19T14:39:31;3.17;;;1.52;;
32746;SDS011;19118;50.860;13.662;2023-09-19T14:44:31;3.87;;;1.67;;
32746;SDS011;19118;50.860;13.662;2023-09-19T14:49:35;4.68;;;1.70;;
32746;SDS011;19118;50.860;13.662;2023-09-19T14:54:39;3.50;;;1.80;;
32746;SDS011;19118;50.860;13.662;2023-09-19T14:59:41;4.40;;;1.50;;
32746;SDS011;19118;50.860;13.662;2023-09-19T15:04:41;5.30;;;2.17;;
32746;SDS011;19118;50.860;13.662;2023-09-19T15:09:44;4.75;;;1.27;;
32746;SDS011;19118;50.860;13.662;2023-09-19T15:14:45;3.25;;;1.67;;
32746;SDS011;19118;50.860;13.662;2023-09-19T15:19:46;7.60;;;1.77;;
32746;SDS011;19118;50.860;13.662;2023-09-19T15:24:46;6.10;;;1.50;;
32746;SDS011;19118;50.860;13.662;2023-09-19T15:29:47;6.43;;;1.95;;
32746;SDS011;19118;50.860;13.662;2023-09-19T15:34:47;6.93;;;1.90;;
32746;SDS011;19118;50.860;13.662;2023-09-19T15:39:47;4.30;;;1.73;;
32746;SDS011;19118;50.860;13.662;2023-09-19T15:44:48;8.80;;;2.05;;
32746;SDS011;19118;50.860;13.662;2023-09-19T15:49:51;3.75;;;1.98;;
32746;SDS011;19118;50.860;13.662;2023-09-19T15:54:52;7.68;;;2.13;;
32746;SDS011;19118;50.860;13.662;2023-09-19T15:59:52;5.73;;;2.30;;
32746;SDS011;19118;50.860;13.662;2023-09-19T16:04:54;7.07;;;2.80;;
32746;SDS011;19118;50.860;13.662;2023-09-19T16:09:55;5.70;;;2.20;;
32746;SDS011;19118;50.860;13.662;2023-09-19T16:14:55;6.10;;;2.22;;
32746;SDS011;19118;50.860;13.662;2023-09-19T16:19:56;6.80;;;2.03;;
32746;SDS011;19118;50.860;13.662;2023-09-19T16:24:56;6.93;;;2.25;;
32746;SDS011;19118;50.860;13.662;2023-09-19T16:29:57;8.03;;;2.33;;
32746;SDS011;19118;50.860;13.662;2023-09-19T16:34:57;5.50;;;2.40;;
32746;SDS011;19118;50.860;13.662;2023-09-19T16:39:57;5.00;;;2.47;;
32746;SDS011;19118;50.860;13.662;2023-09-19T16:44:59;3.90;;;2.08;;
32746;SDS011;19118;50.860;13.662;2023-09-19T16:50:00;5.00;;;2.07;;
32746;SDS011;19118;50.860;13.662;2023-09-19T16:55:00;4.63;;;2.50;;
32746;SDS011;19118;50.860;13.662;2023-09-19T17:00:01;3.97;;;2.00;;
32746;SDS011;19118;50.860;13.662;2023-09-19T17:05:03;5.78;;;2.30;;
32746;SDS011;19118;50.860;13.662;2023-09-19T17:10:04;6.18;;;2.42;;
32746;SDS011;19118;50.860;13.662;2023-09-19T17:15:05;5.45;;;2.20;;
32746;SDS011;19118;50.860;13.662;2023-09-19T17:20:06;5.43;;;2.28;;
32746;SDS011;19118;50.860;13.662;2023-09-19T17:25:07;4.90;;;2.25;;
32746;SDS011;19118;50.860;13.662;2023-09-19T17:30:08;3.60;;;1.98;;
32746;SDS011;19118;50.860;13.662;2023-09-19T17:35:12;5.38;;;2.63;;
32746;SDS011;19118;50.860;13.662;2023-09-19T17:40:14;12.60;;;2.25;;
32746;SDS011;19118;50.860;13.662;2023-09-19T17:45:15;6.57;;;2.60;;
32746;SDS011;19118;50.860;13.662;2023-09-19T17:50:16;7.40;;;2.13;;
32746;SDS011;19118;50.860;13.662;2023-09-19T17:55:16;4.80;;;2.10;;
32746;SDS011;19118;50.860;13.662;2023-09-19T18:00:17;6.40;;;2.10;;
32746;SDS011;19118;50.860;13.662;2023-09-19T18:05:18;4.25;;;2.60;;
32746;SDS011;19118;50.860;13.662;2023-09-19T18:10:18;5.13;;;2.38;;
32746;SDS011;19118;50.860;13.662;2023-09-19T18:15:19;5.43;;;3.00;;
32746;SDS011;19118;50.860;13.662;2023-09-19T18:20:19;11.75;;;2.13;;
32746;SDS011;19118;50.860;13.662;2023-09-19T18:25:22;5.63;;;2.53;;
32746;SDS011;19118;50.860;13.662;2023-09-19T18:30:23;8.65;;;2.95;;
32746;SDS011;19118;50.860;13.662;2023-09-19T18:35:23;6.95;;;2.95;;
32746;SDS011;19118;50.860;13.662;2023-09-19T18:40:24;4.82;;;2.40;;
32746;SDS011;19118;50.860;13.662;2023-09-19T18:45:24;5.95;;;2.20;;
32746;SDS011;19118;50.860;13.662;2023-09-19T18:50:27;4.93;;;2.20;;
32746;SDS011;19118;50.860;13.662;2023-09-19T18:55:28;6.23;;;2.63;;
32746;SDS011;19118;50.860;13.662;2023-09-19T19:00:28;8.00;;;2.50;;
32746;SDS011;19118;50.860;13.662;2023-09-19T19:05:30;4.88;;;2.60;;
32746;SDS011;19118;50.860;13.662;2023-09-19T19:10:32;4.93;;;2.53;;
32746;SDS011;19118;50.860;13.662;2023-09-19T19:15:38;8.88;;;2.08;;
32746;SDS011;19118;50.860;13.662;2023-09-19T19:20:39;10.18;;;2.20;;
32746;SDS011;19118;50.860;13.662;2023-09-19T19:25:47;5.57;;;2.20;;
32746;SDS011;19118;50.860;13.662;2023-09-19T19:30:48;4.20;;;1.95;;
32746;SDS011;19118;50.860;13.662;2023-09-19T19:35:49;6.25;;;1.60;;
32746;SDS011;19118;50.860;13.662;2023-09-19T19:40:57;5.55;;;1.83;;
32746;SDS011;19118;50.860;13.662;2023-09-19T19:46:00;9.52;;;2.30;;
32746;SDS011;19118;50.860;13.662;2023-09-19T19:51:06;5.93;;;1.88;;
32746;SDS011;19118;50.860;13.662;2023-09-19T19:56:07;7.45;;;1.90;;
32746;SDS011;19118;50.860;13.662;2023-09-19T20:01:08;6.15;;;2.15;;
32746;SDS011;19118;50.860;13.662;2023-09-19T20:06:10;6.57;;;2.17;;
32746;SDS011;19118;50.860;13.662;2023-09-19T20:11:10;5.07;;;1.63;;
32746;SDS011;19118;50.860;13.662;2023-09-19T20:16:11;6.60;;;1.70;;
32746;SDS011;19118;50.860;13.662;2023-09-19T20:21:12;6.72;;;2.05;;
32746;SDS011;19118;50.860;13.662;2023-09-19T20:26:15;4.65;;;1.73;;
32746;SDS011;19118;50.860;13.662;2023-09-19T20:31:15;13.80;;;1.90;;
32746;SDS011;19118;50.860;13.662;2023-09-19T20:36:16;4.93;;;1.88;;
32746;SDS011;19118;50.860;13.662;2023-09-19T20:41:16;4.80;;;2.28;;
32746;SDS011;19118;50.860;13.662;2023-09-19T20:46:17;8.47;;;1.77;;
32746;SDS011;19118;50.860;13.662;2023-09-19T20:51:17;9.73;;;2.25;;
32746;SDS011;19118;50.860;13.662;2023-09-19T20:56:25;5.53;;;1.90;;
32746;SDS011;19118;50.860;13.662;2023-09-19T21:01:25;3.45;;;1.83;;
32746;SDS011;19118;50.860;13.662;2023-09-19T21:06:26;7.68;;;2.22;;
32746;SDS011;19118;50.860;13.662;2023-09-19T21:11:26;9.70;;;1.60;;
32746;SDS011;19118;50.860;13.662;2023-09-19T21:16:27;6.68;;;1.40;;
32746;SDS011;19118;50.860;13.662;2023-09-19T21:21:28;7.45;;;2.08;;
32746;SDS011;19118;50.860;13.662;2023-09-19T21:26:31;4.93;;;1.67;;
32746;SDS011;19118;50.860;13.662;2023-09-19T21:31:31;5.25;;;1.50;;
32746;SDS011;19118;50.860;13.662;2023-09-19T21:36:33;3.33;;;1.45;;
32746;SDS011;19118;50.860;13.662;2023-09-19T21:41:33;8.43;;;2.05;;
32746;SDS011;19118;50.860;13.662;2023-09-19T21:46:34;4.68;;;1.52;;
32746;SDS011;19118;50.860;13.662;2023-09-19T21:51:36;2.65;;;1.40;;
32746;SDS011;19118;50.860;13.662;2023-09-19T21:56:36;5.57;;;1.50;;
32746;SDS011;19118;50.860;13.662;2023-09-19T22:01:37;10.85;;;1.65;;
32746;SDS011;19118;50.860;13.662;2023-09-19T22:06:39;5.78;;;1.85;;
32746;SDS011;19118;50.860;13.662;2023-09-19T22:11:39;5.55;;;1.70;;
32746;SDS011;19118;50.860;13.662;2023-09-19T22:16:40;4.78;;;1.80;;
32746;SDS011;19118;50.860;13.662;2023-09-19T22:21:42;7.63;;;1.80;;
32746;SDS011;19118;50.860;13.662;2023-09-19T22:26:46;6.28;;;1.65;;
32746;SDS011;19118;50.860;13.662;2023-09-19T22:31:47;4.15;;;1.20;;
32746;SDS011;19118;50.860;13.662;2023-09-19T22:36:47;12.18;;;1.88;;
32746;SDS011;19118;50.860;13.662;2023-09-19T22:41:54;5.53;;;1.65;;
32746;SDS011;19118;50.860;13.662;2023-09-19T22:46:59;4.22;;;1.60;;
32746;SDS011;19118;50.860;13.662;2023-09-19T22:51:59;3.53;;;1.60;;
32746;SDS011;19118;50.860;13.662;2023-09-19T22:56:59;3.60;;;1.20;;
32746;SDS011;19118;50.860;13.662;2023-09-19T23:02:02;3.78;;;1.63;;
32746;SDS011;19118;50.860;13.662;2023-09-19T23:07:04;4.90;;;1.38;;
32746;SDS011;19118;50.860;13.662;2023-09-19T23:12:05;5.90;;;1.58;;
32746;SDS011;19118;50.860;13.662;2023-09-19T23:17:07;3.53;;;1.30;;
32746;SDS011;19118;50.860;13.662;2023-09-19T23:22:12;9.27;;;1.85;;
32746;SDS011;19118;50.860;13.662;2023-09-19T23:27:17;8.30;;;1.73;;
32746;SDS011;19118;50.860;13.662;2023-09-19T23:32:24;4.78;;;1.40;;
32746;SDS011;19118;50.860;13.662;2023-09-19T23:37:25;4.53;;;1.23;;
32746;SDS011;19118;50.860;13.662;2023-09-19T23:42:25;6.13;;;1.63;;
32746;SDS011;19118;50.860;13.662;2023-09-19T23:47:27;4.93;;;1.35;;
32746;SDS011;19118;50.860;13.662;2023-09-19T23:52:28;10.13;;;1.50;;
32746;SDS011;19118;50.860;13.662;2023-09-19T23:57:28;4.93;;;1.25;;
